Archival Weather

Republic

Farmingdale, New York (KFRG)

Report from: Monday, February 12, 2024 10:53 PM EST
Current time: Saturday, June 22, 2024 4:42 AM EDT

Current weather – Weather history – Daily summaries
Weather forecast

Temperature3.9°C (39.0°F)
Wind chill0.8°C (33.4°F)
Dew point-2.2°C (28.0°F)
Winds 7 kts (3.6 m/s, 8.1 mph) North-Northeast (30°)
Visibility10 mi. (16.1 km)
Clouds Ceiling: Overcast 9,000 ft. (2,743 m)
Altimeter29.78 in.Hg (1008 mB)
Relative humidity64 %
Density altitude-1,098 ft. (-335 m)
Sea-level pressure100.8 kPa (1008 mB, 29.78 in.Hg)
Remarks Automated weather observing station without precipitation discriminator
Flight conditions Visual Meteorological Conditions
Raw dataKFRG 130353Z 03007KT 10SM OVC090 04/M02 A2978 RMK AO1 SLP084 T00391022
An error has occurred. This application may no longer respond until reloaded. Reload 🗙